Airfield :
LOGIN :

Register | Disclaimer

   EN    FR    IT 

 










Legend :    VFR   Marginal VFR   IFR   Intensive IFR   Very Intensive IFR
Visi :
Ceiling :
>= 8 km
>= 3000ft
5 to 8 km
1000 to 3000 ft
1500m to 5 km
500 to 1000 ft
800 to 1500m
200 to 500 ft
< 800m
< 200 ft
Symbols :   Thunderstorms  Fog  Heavy snow  Heavy precipitations  Wind > 20 kt
SIGMETs :     Misc.  Thunderstorms  Icing  Turbulence  Mountain Waves  Volcanic Ashes







- Airport Elevation : 215 ft
- IATA code : ABZ
- Download approach charts


EGPD - Aberdeen / Dyce

CURRENT METAR :
  • 150720Z AUTO 27017KT 9999 NCD 11/04 Q1016 NOSIG

EXPIRED METARs :
  • 150650Z AUTO 27013G25KT 240V320 9999 NCD 11/04 Q1016 NOSIG
  • 150620Z AUTO 27015KT 9999 NCD 11/04 Q1015 NOSIG
  • 150550Z AUTO 28012KT 9999 NCD 10/03 Q1016 NOSIG
  • 150520Z AUTO 29010KT 9999 NCD 11/04 Q1016
  • 150450Z AUTO 27013KT 9999 SCT044 11/04 Q1016 NOSIG

TAF TAF EGPD
Valid from the 15 at 06:00 until the 16 at 06:00 UTC


150501Z 1506/1606 27009KT 9999 FEW020 SCT040
PROB30
TEMPO 1506/1510 28015G25KT
No reported NOTAMs for that airfield.



MET'MAP, your aeronautical weather chart ! - Copyright ORBIFLY December 2007 - Disclaimer

ORBIFLY MET'MAP TEAM :

Programming & Development : Alexandra Zaïnal
Concept & Development : Baudouin d'Aumeries
Co-Development & Prog : Marc-Olivier Méhu
Technical & hardware support : Manuel Goepfert

Contact : metmap@orbifly.com




SOURCES & CREDITS :

   NOAA